Terminal Aerodrome Forecast
Issued by NWS

Home | Current Version | Previous Version | Text Only | Print | Product List | Glossary On
Versions: 1 2 3 4 5 6 7 8 9 10 11 12 13 14 15 16
908
FTUS43 KGRR 101136
TAFAZO
TAF
KAZO 101136Z 1012/1112 31011KT 3SM -SHSN BR OVC020
      TEMPO 1012/1016 1SM -SHSN BR OVC015
     FM101600 31011G20KT 5SM -SHSN BR OVC030
     FM110200 31009KT P6SM -SN BKN035=

USA.gov is the U.S. government's official web portal to all federal, state and local government web resources and services.